createdAt,value
2022-12-23T00:01:13.485Z,7.44
2022-12-23T00:03:40.115Z,7.46
2022-12-23T00:06:15.619Z,7.42
2022-12-23T00:08:42.870Z,7.40
2022-12-23T00:11:15.796Z,7.40
2022-12-23T00:14:01.185Z,7.40
2022-12-23T00:16:27.856Z,7.32
2022-12-23T00:19:00.211Z,7.26
2022-12-23T00:21:26.600Z,7.29
2022-12-23T00:23:53.100Z,7.35
2022-12-23T00:26:22.957Z,7.41
2022-12-23T00:28:50.195Z,7.44
2022-12-23T00:31:21.195Z,7.43
2022-12-23T00:33:50.909Z,7.36
2022-12-23T00:36:27.501Z,7.36
2022-12-23T00:39:13.577Z,7.36
2022-12-23T00:41:58.833Z,7.31
2022-12-23T00:44:25.421Z,7.33
2022-12-23T00:46:52.229Z,7.35
2022-12-23T00:49:38.832Z,7.35
2022-12-23T00:52:08.205Z,7.39
2022-12-23T00:54:34.727Z,7.40
2022-12-23T00:57:01.871Z,7.37
2022-12-23T00:59:28.377Z,7.41
2022-12-23T01:02:13.581Z,7.35
2022-12-23T01:04:58.808Z,7.37
2022-12-23T01:07:25.412Z,7.35
2022-12-23T01:09:51.816Z,7.36
2022-12-23T01:12:18.599Z,7.38
2022-12-23T01:14:45.147Z,7.38
2022-12-23T01:17:12.801Z,7.43
2022-12-23T01:19:39.518Z,7.43
2022-12-23T01:22:05.929Z,7.38
2022-12-23T01:24:33.364Z,7.41
2022-12-23T01:27:00.830Z,7.37
2022-12-23T01:29:28.808Z,7.36
2022-12-23T01:31:55.502Z,7.35
2022-12-23T01:34:22.100Z,7.35
2022-12-23T01:36:48.607Z,7.38
2022-12-23T01:39:15.015Z,7.37
2022-12-23T01:42:00.088Z,7.28
2022-12-23T01:44:53.757Z,7.32
2022-12-23T01:47:25.974Z,7.35
2022-12-23T01:49:57.234Z,7.38
2022-12-23T01:52:24.074Z,7.39
2022-12-23T01:54:50.814Z,7.36
2022-12-23T01:57:17.389Z,7.36
2022-12-23T02:00:03.425Z,7.33
2022-12-23T02:02:50.349Z,7.32
2022-12-23T02:05:17.303Z,7.36
2022-12-23T02:08:02.407Z,7.26
2022-12-23T02:10:37.531Z,7.34
2022-12-23T02:13:16.176Z,7.34
2022-12-23T02:16:18.650Z,7.26
2022-12-23T02:19:22.743Z,7.25
2022-12-23T02:22:09.456Z,7.28
2022-12-23T02:24:57.645Z,7.32
2022-12-23T02:27:27.041Z,7.30
2022-12-23T02:30:21.560Z,7.31
2022-12-23T02:33:19.608Z,7.28
2022-12-23T02:36:24.643Z,7.28
2022-12-23T02:39:00.136Z,7.27
2022-12-23T02:42:06.643Z,7.29
2022-12-23T02:44:54.500Z,7.27
2022-12-23T02:47:24.881Z,7.24
2022-12-23T02:50:02.211Z,7.26
2022-12-23T02:52:32.667Z,7.25
2022-12-23T02:55:08.431Z,7.24
2022-12-23T02:57:39.084Z,7.25
2022-12-23T03:00:07.103Z,7.27
2022-12-23T03:02:39.201Z,7.27
2022-12-23T03:05:22.977Z,7.26
2022-12-23T03:07:50.583Z,7.26
2022-12-23T03:10:32.336Z,7.23
2022-12-23T03:13:34.173Z,7.20
2022-12-23T03:16:08.018Z,7.23
2022-12-23T03:18:50.638Z,7.21
2022-12-23T03:21:29.944Z,7.25
2022-12-23T03:24:22.900Z,7.27
2022-12-23T03:26:52.312Z,7.27
2022-12-23T03:29:42.077Z,7.16
2022-12-23T03:32:11.121Z,7.24
2022-12-23T03:34:41.365Z,7.24
2022-12-23T03:37:10.769Z,7.26
2022-12-23T03:39:45.599Z,7.23
2022-12-23T03:42:20.983Z,7.20
2022-12-23T03:45:19.309Z,7.23
2022-12-23T03:47:50.243Z,7.23
2022-12-23T03:50:19.831Z,7.26
2022-12-23T03:52:57.094Z,7.23
2022-12-23T03:55:40.561Z,7.19
2022-12-23T03:58:21.529Z,7.18
2022-12-23T04:01:01.067Z,7.20
2022-12-23T04:03:36.777Z,7.19
2022-12-23T04:06:08.700Z,7.19
2022-12-23T04:08:38.171Z,7.16
2022-12-23T04:11:05.831Z,7.17
2022-12-23T04:13:32.531Z,7.17
2022-12-23T04:16:00.547Z,7.17
2022-12-23T04:18:28.051Z,7.15
2022-12-23T04:20:54.508Z,7.18
2022-12-23T04:23:20.982Z,7.13
2022-12-23T04:25:47.412Z,7.17
2022-12-23T04:28:13.848Z,7.18
2022-12-23T04:30:40.292Z,7.16
2022-12-23T04:33:06.749Z,7.17
2022-12-23T04:35:33.229Z,7.18
2022-12-23T04:37:59.653Z,7.20
2022-12-23T04:40:26.109Z,7.19
2022-12-23T04:42:52.563Z,7.17
2022-12-23T04:45:20.102Z,7.10
2022-12-23T04:47:46.649Z,7.18
2022-12-23T04:50:16.785Z,7.16
2022-12-23T04:52:43.904Z,7.15
2022-12-23T04:55:10.633Z,7.14
2022-12-23T04:57:37.041Z,7.11
2022-12-23T05:00:05.228Z,7.10
2022-12-23T05:02:31.802Z,7.09
2022-12-23T05:05:01.097Z,7.09
2022-12-23T05:07:27.511Z,7.09
2022-12-23T05:09:54.028Z,7.08
2022-12-23T05:12:20.499Z,7.08
2022-12-23T05:14:47.245Z,7.08
2022-12-23T05:17:13.632Z,7.07
2022-12-23T05:19:40.047Z,7.03
2022-12-23T05:22:06.490Z,7.01
2022-12-23T05:24:32.898Z,7.00
2022-12-23T05:27:00.299Z,7.00
2022-12-23T05:29:27.524Z,6.99
2022-12-23T05:31:54.092Z,6.99
2022-12-23T05:34:20.850Z,7.01
2022-12-23T05:36:47.464Z,7.03
2022-12-23T05:39:14.064Z,7.01
2022-12-23T05:41:40.536Z,7.01
2022-12-23T05:44:06.945Z,7.03
2022-12-23T05:46:33.741Z,7.01
2022-12-23T05:49:00.203Z,7.04
2022-12-23T05:51:26.692Z,7.02
2022-12-23T05:53:53.079Z,7.04
2022-12-23T05:56:19.508Z,7.05
2022-12-23T05:58:45.910Z,7.05
2022-12-23T06:01:12.311Z,7.05
2022-12-23T06:03:38.870Z,7.02
2022-12-23T06:06:05.832Z,7.05
2022-12-23T06:08:32.291Z,7.06
2022-12-23T06:10:59.937Z,7.04
2022-12-23T06:13:26.647Z,7.04
2022-12-23T06:15:53.140Z,7.05
2022-12-23T06:18:19.540Z,7.04
2022-12-23T06:20:47.735Z,7.04
2022-12-23T06:23:14.222Z,7.03
2022-12-23T06:25:40.648Z,7.01
2022-12-23T06:28:07.988Z,7.02
2022-12-23T06:30:34.985Z,7.03
2022-12-23T06:33:01.484Z,7.00
2022-12-23T06:35:28.063Z,7.03
2022-12-23T06:37:54.487Z,7.01
2022-12-23T06:40:21.089Z,7.01
2022-12-23T06:42:47.534Z,7.04
2022-12-23T06:45:14.070Z,7.01
2022-12-23T06:47:40.536Z,7.08
2022-12-23T06:50:07.397Z,7.11
2022-12-23T06:52:33.795Z,7.12
2022-12-23T06:55:00.201Z,7.11
2022-12-23T06:57:26.894Z,7.10
2022-12-23T06:59:53.316Z,7.10
2022-12-23T07:02:20.663Z,7.08
2022-12-23T07:04:47.299Z,7.03
2022-12-23T07:07:13.784Z,7.03
2022-12-23T07:09:40.853Z,7.04
2022-12-23T07:12:07.348Z,7.03
2022-12-23T07:14:33.759Z,7.07
2022-12-23T07:17:00.253Z,7.05
2022-12-23T07:19:26.715Z,7.03
2022-12-23T07:21:53.241Z,7.07
2022-12-23T07:24:19.698Z,7.09
2022-12-23T07:26:46.101Z,7.12
2022-12-23T07:29:12.515Z,7.17
2022-12-23T07:31:41.158Z,7.19
2022-12-23T07:34:08.071Z,7.29
2022-12-23T07:36:34.483Z,7.31
2022-12-23T07:39:00.897Z,7.32
2022-12-23T07:41:27.403Z,7.28
2022-12-23T07:43:54.847Z,7.25
2022-12-23T07:46:21.347Z,7.22
2022-12-23T07:48:47.868Z,7.27
2022-12-23T07:51:14.419Z,7.28
2022-12-23T07:53:40.984Z,7.31
2022-12-23T07:56:07.797Z,7.27
2022-12-23T07:58:34.377Z,7.29
2022-12-23T08:01:02.632Z,7.28
2022-12-23T08:03:29.544Z,7.20
2022-12-23T08:06:04.620Z,7.23
2022-12-23T08:08:32.048Z,7.20
2022-12-23T08:11:00.295Z,7.17
2022-12-23T08:13:27.107Z,7.16
2022-12-23T08:15:57.997Z,7.18
2022-12-23T08:18:25.375Z,7.19
2022-12-23T08:21:00.404Z,7.18
2022-12-23T08:23:28.436Z,7.27
2022-12-23T08:26:09.485Z,7.27
2022-12-23T08:28:37.506Z,7.23
2022-12-23T08:31:25.318Z,7.22
2022-12-23T08:33:55.602Z,7.22
2022-12-23T08:36:31.046Z,7.18
2022-12-23T08:38:59.373Z,7.16
2022-12-23T08:41:28.988Z,7.17
2022-12-23T08:43:55.768Z,7.20
2022-12-23T08:46:24.280Z,7.12
2022-12-23T08:48:50.925Z,7.23
2022-12-23T08:51:19.904Z,7.24
2022-12-23T08:53:52.438Z,7.26
2022-12-23T08:56:23.375Z,7.27
2022-12-23T08:58:52.720Z,7.27
2022-12-23T09:01:22.309Z,7.24
2022-12-23T09:03:49.561Z,7.11
2022-12-23T09:06:29.029Z,7.22
2022-12-23T09:08:57.350Z,7.18
2022-12-23T09:11:26.537Z,7.19
2022-12-23T09:13:53.724Z,7.23
2022-12-23T09:16:20.903Z,7.26
2022-12-23T09:18:48.474Z,7.29
2022-12-23T09:21:19.479Z,7.31
2022-12-23T09:23:48.000Z,7.34
2022-12-23T09:26:23.670Z,7.36
2022-12-23T09:28:50.599Z,7.35
2022-12-23T09:31:17.258Z,7.36
2022-12-23T09:33:47.093Z,7.40
2022-12-23T09:36:13.902Z,7.37
2022-12-23T09:38:40.428Z,7.41
2022-12-23T09:41:34.912Z,7.44
2022-12-23T09:44:47.390Z,7.36
2022-12-23T09:47:19.779Z,7.38
2022-12-23T09:49:56.645Z,7.45
2022-12-23T09:52:33.421Z,7.42
2022-12-23T09:55:00.704Z,7.44
2022-12-23T09:57:45.963Z,7.45
2022-12-23T10:00:18.864Z,7.46
2022-12-23T10:02:58.919Z,7.35
2022-12-23T10:05:49.890Z,7.43
2022-12-23T10:08:33.035Z,7.38
2022-12-23T10:11:11.445Z,7.40
2022-12-23T10:13:43.735Z,7.43
2022-12-23T10:16:18.291Z,7.43
2022-12-23T10:18:44.865Z,7.35
2022-12-23T10:21:23.095Z,7.37
2022-12-23T10:23:53.637Z,7.43
2022-12-23T10:26:24.375Z,7.47
2022-12-23T10:28:56.102Z,7.46
2022-12-23T10:31:41.878Z,7.47
2022-12-23T10:34:53.537Z,7.49
2022-12-23T10:37:51.821Z,7.49
2022-12-23T10:40:54.494Z,7.45
2022-12-23T10:43:58.933Z,7.46
2022-12-23T10:46:45.882Z,7.49
2022-12-23T10:49:30.118Z,7.49
2022-12-23T10:52:10.639Z,7.37
2022-12-23T10:54:45.558Z,7.43
2022-12-23T10:57:15.457Z,7.48
2022-12-23T10:59:42.544Z,7.50
2022-12-23T11:02:12.005Z,7.52
2022-12-23T11:04:41.169Z,7.49
2022-12-23T11:07:42.779Z,7.44
2022-12-23T11:10:09.878Z,7.52
2022-12-23T11:12:42.503Z,7.59
2022-12-23T11:15:33.888Z,7.59
2022-12-23T11:18:07.148Z,7.55
2022-12-23T11:20:35.850Z,7.58
2022-12-23T11:23:04.095Z,7.58
2022-12-23T11:25:42.681Z,7.51
2022-12-23T11:28:11.765Z,7.53
2022-12-23T11:30:55.487Z,7.51
2022-12-23T11:33:29.844Z,7.54
2022-12-23T11:36:02.527Z,7.56
2022-12-23T11:38:29.326Z,7.50
2022-12-23T11:40:56.381Z,7.57
2022-12-23T11:43:25.012Z,7.49
2022-12-23T11:46:16.400Z,7.49
2022-12-23T11:48:43.001Z,7.57
2022-12-23T11:51:09.388Z,7.59
2022-12-23T11:53:36.700Z,7.61
2022-12-23T11:56:08.576Z,7.47
2022-12-23T11:58:46.113Z,7.53
2022-12-23T12:01:20.114Z,7.47
2022-12-23T12:03:59.340Z,7.46
2022-12-23T12:06:27.400Z,7.46
2022-12-23T12:08:57.696Z,7.41
2022-12-23T12:11:33.260Z,7.50
2022-12-23T12:14:02.313Z,7.49
2022-12-23T12:16:55.237Z,7.44
2022-12-23T12:19:29.476Z,7.42
2022-12-23T12:22:02.452Z,7.46
2022-12-23T12:24:36.726Z,7.50
2022-12-23T12:27:06.596Z,7.49
2022-12-23T12:29:41.390Z,7.51
2022-12-23T12:32:33.142Z,7.50
2022-12-23T12:35:14.908Z,7.50
2022-12-23T12:37:49.303Z,7.49
2022-12-23T12:40:42.154Z,7.50
2022-12-23T12:43:29.705Z,7.50
2022-12-23T12:46:11.665Z,7.52
2022-12-23T12:48:49.050Z,7.51
2022-12-23T12:51:27.519Z,7.48
2022-12-23T12:54:01.145Z,7.50
2022-12-23T12:56:41.559Z,7.49
2022-12-23T12:59:18.190Z,7.44
2022-12-23T13:02:07.263Z,7.49
2022-12-23T13:04:58.477Z,7.51
2022-12-23T13:07:47.089Z,7.52
2022-12-23T13:10:52.118Z,7.52
2022-12-23T13:13:52.368Z,7.56
2022-12-23T13:16:39.298Z,7.55
2022-12-23T13:19:23.782Z,7.54
2022-12-23T13:22:10.091Z,7.53
2022-12-23T13:25:07.741Z,7.50
2022-12-23T13:27:58.507Z,7.49
2022-12-23T13:30:32.019Z,7.42
2022-12-23T13:33:29.729Z,7.51
2022-12-23T13:36:10.302Z,7.51
2022-12-23T13:38:51.921Z,7.48
2022-12-23T13:41:42.586Z,7.46
2022-12-23T13:44:10.790Z,7.55
2022-12-23T13:46:57.854Z,7.57
2022-12-23T13:49:30.521Z,7.58
2022-12-23T13:52:08.874Z,7.50
2022-12-23T13:54:46.641Z,7.60
2022-12-23T13:57:45.051Z,7.60
2022-12-23T14:00:17.598Z,7.62
2022-12-23T14:03:02.051Z,7.61
2022-12-23T14:05:35.952Z,7.60
2022-12-23T14:08:18.510Z,7.58
2022-12-23T14:11:11.447Z,7.56
2022-12-23T14:13:45.161Z,7.53
2022-12-23T14:16:26.192Z,7.49
2022-12-23T14:18:52.571Z,7.50
2022-12-23T14:21:50.107Z,7.52
2022-12-23T14:24:45.822Z,7.50
2022-12-23T14:27:40.286Z,7.55
2022-12-23T14:30:35.088Z,7.55
2022-12-23T14:33:23.129Z,7.54
2022-12-23T14:36:13.130Z,7.58
2022-12-23T14:38:39.745Z,7.58
2022-12-23T14:41:37.379Z,7.55
2022-12-23T14:44:17.406Z,7.55
2022-12-23T14:46:43.899Z,7.58
2022-12-23T14:49:38.856Z,7.58
2022-12-23T14:52:39.188Z,7.60
2022-12-23T14:55:31.182Z,7.60
2022-12-23T14:58:20.357Z,7.54
2022-12-23T15:00:56.474Z,7.42
2022-12-23T15:03:23.302Z,7.53
2022-12-23T15:05:50.996Z,7.53
2022-12-23T15:08:38.530Z,7.57
2022-12-23T15:11:07.612Z,7.54
2022-12-23T15:13:35.093Z,7.49
2022-12-23T15:16:02.410Z,7.51
2022-12-23T15:18:29.366Z,7.48
2022-12-23T15:21:04.680Z,7.48
2022-12-23T15:23:31.256Z,7.42
2022-12-23T15:26:00.289Z,7.50
2022-12-23T15:28:36.161Z,7.51
2022-12-23T15:31:04.874Z,7.50
2022-12-23T15:36:31.975Z,7.50
2022-12-23T15:39:00.522Z,7.50
2022-12-23T15:41:27.635Z,7.50
2022-12-23T15:43:57.949Z,7.48
2022-12-23T15:46:29.935Z,7.39
2022-12-23T15:48:57.617Z,7.49
2022-12-23T15:51:58.313Z,7.49
2022-12-23T15:54:29.610Z,7.45
2022-12-23T15:56:57.765Z,7.45
2022-12-23T15:59:29.065Z,7.46
2022-12-23T16:01:55.959Z,7.48
2022-12-23T16:04:27.039Z,7.47
2022-12-23T16:06:54.113Z,7.50
2022-12-23T16:09:20.594Z,7.50
2022-12-23T16:11:59.185Z,7.51
2022-12-23T16:14:38.435Z,7.51
2022-12-23T16:17:07.720Z,7.50
2022-12-23T16:19:54.843Z,7.48
2022-12-23T16:22:30.246Z,7.43
2022-12-23T16:24:56.710Z,7.44
2022-12-23T16:27:46.113Z,7.41
2022-12-23T16:30:34.088Z,7.40
2022-12-23T16:33:35.374Z,7.42
2022-12-23T16:36:27.007Z,7.42
2022-12-23T16:39:02.453Z,7.36
2022-12-23T16:41:28.934Z,7.42
2022-12-23T16:43:55.306Z,7.42
2022-12-23T16:46:23.282Z,7.48
2022-12-23T16:48:59.104Z,7.45
2022-12-23T16:51:27.182Z,7.44
2022-12-23T16:53:56.439Z,7.47
2022-12-23T16:56:36.271Z,7.47
2022-12-23T16:59:03.909Z,7.42
2022-12-23T17:01:37.463Z,7.46
2022-12-23T17:04:05.571Z,7.48
2022-12-23T17:06:32.328Z,7.37
2022-12-23T17:08:58.776Z,7.44
2022-12-23T17:11:45.118Z,7.46
2022-12-23T17:14:25.223Z,7.48
2022-12-23T17:16:53.616Z,7.50
2022-12-23T17:19:28.905Z,7.44
2022-12-23T17:22:01.377Z,7.49
2022-12-23T17:24:28.337Z,7.41
2022-12-23T17:26:56.780Z,7.36
2022-12-23T17:29:23.634Z,7.43
2022-12-23T17:31:50.920Z,7.50
2022-12-23T17:34:18.349Z,7.52
2022-12-23T17:36:49.968Z,7.55
2022-12-23T17:39:17.389Z,7.50
2022-12-23T17:41:43.924Z,7.54
2022-12-23T17:44:14.137Z,7.55
2022-12-23T17:46:40.852Z,7.60
2022-12-23T17:49:08.354Z,7.58
2022-12-23T17:51:35.150Z,7.55
2022-12-23T17:54:02.203Z,7.53
2022-12-23T17:56:33.106Z,7.58
2022-12-23T17:58:59.518Z,7.62
2022-12-23T18:01:27.456Z,7.62
2022-12-23T18:03:54.964Z,7.67
2022-12-23T18:06:23.037Z,7.68
2022-12-23T18:08:49.886Z,7.64
2022-12-23T18:11:27.219Z,7.71
2022-12-23T18:13:54.244Z,7.62
2022-12-23T18:16:20.854Z,7.75
2022-12-23T18:18:47.485Z,7.78
2022-12-23T18:21:32.759Z,7.81
2022-12-23T18:23:59.820Z,7.79
2022-12-23T18:26:26.562Z,7.78
2022-12-23T18:28:54.352Z,7.80
2022-12-23T18:31:24.343Z,7.76
2022-12-23T18:33:52.144Z,7.86
2022-12-23T18:36:31.171Z,7.95
2022-12-23T18:38:57.800Z,7.86
2022-12-23T18:41:26.008Z,7.85
2022-12-23T18:43:53.540Z,7.83
2022-12-23T18:46:20.885Z,7.88
2022-12-23T18:48:47.690Z,7.83
2022-12-23T18:51:19.062Z,8.00
2022-12-23T18:53:46.810Z,7.96
2022-12-23T18:56:20.917Z,7.86
2022-12-23T18:58:47.628Z,7.85
2022-12-23T19:01:15.743Z,7.90
2022-12-23T19:03:43.270Z,7.90
2022-12-23T19:06:13.490Z,7.89
2022-12-23T19:08:41.621Z,7.85
2022-12-23T19:11:13.033Z,7.92
2022-12-23T19:13:39.874Z,7.90
2022-12-23T19:16:06.506Z,7.86
2022-12-23T19:18:32.983Z,7.89
2022-12-23T19:21:04.450Z,7.93
2022-12-23T19:23:30.875Z,7.90
2022-12-23T19:25:57.304Z,7.89
2022-12-23T19:28:23.845Z,7.96
2022-12-23T19:30:50.554Z,8.05
2022-12-23T19:33:17.300Z,8.01
2022-12-23T19:35:44.628Z,8.01
2022-12-23T19:38:12.331Z,8.08
2022-12-23T19:40:40.278Z,8.01
2022-12-23T19:43:07.221Z,8.00
2022-12-23T19:45:33.778Z,7.97
2022-12-23T19:48:00.236Z,7.86
2022-12-23T19:50:27.232Z,7.97
2022-12-23T19:52:54.793Z,8.02
2022-12-23T19:55:21.328Z,8.02
2022-12-23T19:57:47.720Z,8.06
2022-12-23T20:00:15.955Z,8.01
2022-12-23T20:02:42.642Z,8.00
2022-12-23T20:05:10.189Z,7.99
2022-12-23T20:07:36.794Z,8.01
2022-12-23T20:10:04.827Z,8.00
2022-12-23T20:12:31.473Z,8.05
2022-12-23T20:14:58.018Z,8.07
2022-12-23T20:17:24.425Z,8.04
2022-12-23T20:19:50.842Z,8.05
2022-12-23T20:22:17.244Z,8.05
2022-12-23T20:24:43.677Z,8.05
2022-12-23T20:27:12.509Z,8.05
2022-12-23T20:29:40.460Z,8.12
2022-12-23T20:32:06.860Z,8.08
2022-12-23T20:34:38.754Z,8.10
2022-12-23T20:37:06.017Z,8.09
2022-12-23T20:39:32.492Z,8.07
2022-12-23T20:41:59.003Z,8.10
2022-12-23T20:44:34.926Z,8.09
2022-12-23T20:47:01.959Z,8.06
2022-12-23T20:49:28.452Z,8.08
2022-12-23T20:51:55.009Z,8.10
2022-12-23T20:54:26.310Z,8.13
2022-12-23T20:56:56.552Z,8.13
2022-12-23T20:59:22.964Z,8.13
2022-12-23T21:01:49.395Z,8.16
2022-12-23T21:04:16.343Z,8.15
2022-12-23T21:06:43.782Z,8.11
2022-12-23T21:09:12.779Z,8.16
2022-12-23T21:11:42.844Z,8.18
2022-12-23T21:14:10.002Z,8.17
2022-12-23T21:16:37.437Z,8.15
2022-12-23T21:19:05.311Z,8.15
2022-12-23T21:21:32.065Z,8.12
2022-12-23T21:24:01.613Z,8.12
2022-12-23T21:26:30.229Z,8.15
2022-12-23T21:28:59.418Z,8.10
2022-12-23T21:31:28.291Z,8.10
2022-12-23T21:33:55.178Z,8.16
2022-12-23T21:36:24.165Z,8.19
2022-12-23T21:38:51.375Z,8.10
2022-12-23T21:41:21.133Z,8.19
2022-12-23T21:43:48.606Z,8.22
2022-12-23T21:46:17.572Z,8.21
2022-12-23T21:48:44.591Z,8.23
2022-12-23T21:51:14.885Z,8.23
2022-12-23T21:53:44.435Z,8.25
2022-12-23T21:56:13.916Z,8.22
2022-12-23T21:58:41.102Z,8.21
2022-12-23T22:01:16.383Z,8.22
2022-12-23T22:03:44.889Z,8.24
2022-12-23T22:06:15.674Z,8.20
2022-12-23T22:08:42.977Z,8.18
2022-12-23T22:11:12.483Z,8.19
2022-12-23T22:13:39.897Z,8.19
2022-12-23T22:16:11.492Z,8.18
2022-12-23T22:18:38.855Z,8.17
2022-12-23T22:21:13.501Z,8.18
2022-12-23T22:23:40.662Z,8.17
2022-12-23T22:26:08.343Z,8.21
2022-12-23T22:28:37.230Z,8.18
2022-12-23T22:31:17.821Z,8.18
2022-12-23T22:33:45.081Z,8.16
2022-12-23T22:36:13.233Z,8.15
2022-12-23T22:38:40.400Z,8.16
2022-12-23T22:41:07.079Z,8.16
2022-12-23T22:43:33.947Z,8.14
2022-12-23T22:46:02.100Z,8.12
2022-12-23T22:48:29.878Z,8.12
2022-12-23T22:51:09.368Z,8.13
2022-12-23T22:53:36.793Z,8.11
2022-12-23T22:56:04.264Z,8.11
2022-12-23T22:58:32.201Z,8.13
2022-12-23T23:00:59.678Z,8.14
2022-12-23T23:03:27.134Z,8.16
2022-12-23T23:06:01.824Z,8.13
2022-12-23T23:08:29.480Z,8.17
2022-12-23T23:10:58.213Z,8.17
2022-12-23T23:13:27.932Z,8.14
2022-12-23T23:15:55.997Z,8.16
2022-12-23T23:18:23.560Z,8.15
2022-12-23T23:20:50.080Z,8.16
2022-12-23T23:23:16.755Z,8.15
2022-12-23T23:25:43.464Z,8.16
2022-12-23T23:28:11.746Z,8.13
2022-12-23T23:30:39.302Z,8.13
2022-12-23T23:33:10.128Z,8.10
2022-12-23T23:35:36.690Z,8.10
2022-12-23T23:38:03.274Z,8.08
2022-12-23T23:40:29.738Z,8.09
2022-12-23T23:42:56.163Z,8.12
2022-12-23T23:45:22.614Z,8.07
2022-12-23T23:47:49.073Z,8.08
2022-12-23T23:50:15.479Z,8.06
2022-12-23T23:52:41.943Z,8.08
2022-12-23T23:55:09.110Z,8.06
2022-12-23T23:57:35.661Z,8.06
